Time;durP1;ratioP1;P1;durP2;ratioP2;P2;SDS_P1;SDS_P2;PMS_P1;PMS_P2;Temp;Humidity;BMP_temperature;BMP_pressure;BME280_temperature;BME280_humidity;BME280_pressure;Samples;Min_cycle;Max_cycle;Signal;HPM_P1;HPM_P2
2022/01/24 00:01:07;;;;;;;37.38;24.38;;;5.10;99.90;;;;;;5014702;28;20126;-81
2022/01/24 00:03:34;;;;;;;37.05;25.50;;;5.30;99.90;;;;;;5033522;28;20480;-81
2022/01/24 00:06:00;;;;;;;34.25;25.05;;;5.10;99.90;;;;;;5000988;28;20069;-81
2022/01/24 00:08:26;;;;;;;35.05;25.17;;;5.10;99.90;;;;;;5017317;28;20080;-81
2022/01/24 00:10:53;;;;;;;34.42;23.90;;;5.10;99.90;;;;;;5017529;28;20553;-81
2022/01/24 00:13:58;;;;;;;34.50;24.65;;;5.10;99.90;;;;;;5020900;28;20073;-81
2022/01/24 00:26:51;;;;;;;37.30;26.52;;;5.10;99.90;;;;;;5035430;28;20102;-81
2022/01/24 00:29:19;;;;;;;37.22;26.30;;;5.10;99.90;;;;;;5020732;28;20123;-81
2022/01/24 00:31:46;;;;;;;38.17;25.83;;;5.40;99.90;;;;;;5020191;28;20489;-81
2022/01/24 00:34:12;;;;;;;36.38;25.60;;;5.00;99.90;;;;;;5020141;28;20531;-81
2022/01/24 00:36:39;;;;;;;34.67;23.95;;;5.00;99.90;;;;;;5036556;28;20516;-81
2022/01/24 00:39:06;;;;;;;35.47;25.00;;;5.00;99.90;;;;;;5002840;28;20041;-81
2022/01/24 00:41:43;;;;;;;33.33;24.27;;;5.00;99.90;;;;;;5018777;28;20079;-81
2022/01/24 00:46:57;;;;;;;34.35;24.13;;;5.00;99.90;;;;;;5007600;28;20443;-81
2022/01/24 00:54:44;;;;;;;33.72;23.92;;;4.90;99.90;;;;;;5036147;28;20041;-81
2022/01/24 00:57:11;;;;;;;33.60;23.95;;;5.00;99.90;;;;;;5003742;28;20051;-81
2022/01/24 00:59:37;;;;;;;31.38;22.92;;;5.00;99.90;;;;;;5036183;28;20051;-81
2022/01/24 01:02:05;;;;;;;29.90;21.73;;;5.00;99.90;;;;;;5035953;28;20037;-81
2022/01/24 01:04:49;;;;;;;26.60;20.60;;;5.00;99.90;;;;;;5020000;28;20079;-81
2022/01/24 01:07:31;;;;;;;29.00;20.85;;;4.90;99.90;;;;;;5021787;28;20550;-81
2022/01/24 01:18:16;;;;;;;30.00;21.55;;;5.20;99.90;;;;;;5021972;28;20052;-81
2022/01/24 01:23:18;;;;;;;27.10;21.02;;;4.90;99.90;;;;;;5016147;28;20041;-81
2022/01/24 01:25:45;;;;;;;27.70;19.90;;;4.90;99.90;;;;;;4982516;28;20128;-81
2022/01/24 01:28:11;;;;;;;25.33;19.20;;;4.90;99.90;;;;;;4983779;28;20073;-81
2022/01/24 01:30:42;;;;;;;25.85;20.17;;;4.90;99.90;;;;;;5032302;28;20096;-81
2022/01/24 01:33:21;;;;;;;26.42;20.08;;;5.10;99.90;;;;;;4984418;28;20073;-81
2022/01/24 01:54:51;;;;;;;25.13;18.25;;;5.00;99.90;;;;;;5001656;28;20042;-81
2022/01/24 01:57:19;;;;;;;24.88;19.02;;;4.80;99.90;;;;;;4998277;28;20489;-81
2022/01/24 01:59:45;;;;;;;26.08;18.88;;;4.90;99.90;;;;;;4999021;28;20083;-81
2022/01/24 02:02:11;;;;;;;26.90;19.52;;;4.80;99.90;;;;;;4982309;28;20037;-81
2022/01/24 02:04:38;;;;;;;24.92;18.13;;;4.80;99.90;;;;;;5031680;28;20115;-81
2022/01/24 02:07:03;;;;;;;25.60;18.27;;;4.80;99.90;;;;;;4982359;28;20042;-81
2022/01/24 02:09:33;;;;;;;24.67;17.83;;;4.80;99.90;;;;;;4999005;28;20045;-81
2022/01/24 02:11:59;;;;;;;28.15;19.48;;;4.80;99.90;;;;;;5023124;28;20404;-81
2022/01/24 02:14:31;;;;;;;26.00;17.52;;;4.80;99.90;;;;;;5018725;28;20098;-81
2022/01/24 02:17:06;;;;;;;22.63;17.02;;;4.80;99.90;;;;;;5019320;28;20120;-81
2022/01/24 02:20:06;;;;;;;25.65;18.05;;;4.80;99.90;;;;;;5018418;28;20041;-81
2022/01/24 02:22:43;;;;;;;24.13;17.25;;;4.80;99.90;;;;;;5023048;28;20048;-81
2022/01/24 02:25:22;;;;;;;25.60;18.00;;;4.80;99.90;;;;;;5019875;28;20083;-81
2022/01/24 02:27:54;;;;;;;25.13;18.35;;;4.90;99.90;;;;;;5003882;28;20048;-81
2022/01/24 02:33:05;;;;;;;24.48;17.77;;;4.80;99.90;;;;;;5021134;28;20041;-81
2022/01/24 02:35:30;;;;;;;22.95;17.08;;;4.80;99.90;;;;;;5018093;28;20043;-82
2022/01/24 02:38:00;;;;;;;23.48;17.15;;;4.80;99.90;;;;;;5034656;28;20408;-82
2022/01/24 02:40:26;;;;;;;21.30;15.55;;;4.80;99.90;;;;;;5017798;28;20041;-81
2022/01/24 02:48:30;;;;;;;21.52;16.00;;;4.80;99.90;;;;;;5020874;28;20072;-81
2022/01/24 02:53:29;;;;;;;22.20;16.55;;;4.80;99.90;;;;;;5034884;28;20041;-81
2022/01/24 02:55:55;;;;;;;22.58;16.63;;;4.80;99.90;;;;;;5017311;28;20040;-81
2022/01/24 02:58:21;;;;;;;21.90;16.65;;;4.80;99.90;;;;;;5018353;28;20136;-81
2022/01/24 03:00:48;;;;;;;22.90;16.38;;;4.80;99.90;;;;;;5002008;28;20440;-81
2022/01/24 03:03:14;;;;;;;22.10;16.45;;;4.90;99.90;;;;;;5021709;28;20113;-81
2022/01/24 03:05:40;;;;;;;22.38;16.35;;;4.70;99.90;;;;;;5005295;28;20044;-81
2022/01/24 03:08:06;;;;;;;21.83;15.70;;;4.70;99.90;;;;;;5021753;28;20492;-81
2022/01/24 03:10:46;;;;;;;22.73;17.17;;;4.80;99.90;;;;;;5004359;28;20242;-81
2022/01/24 03:15:40;;;;;;;21.80;16.42;;;4.70;99.90;;;;;;5021609;28;20052;-82
2022/01/24 03:18:07;;;;;;;21.48;16.25;;;4.70;99.90;;;;;;5038322;28;20044;-82
2022/01/24 03:20:33;;;;;;;22.05;16.05;;;4.70;99.90;;;;;;5021550;28;20442;-82
2022/01/24 03:22:59;;;;;;;21.67;17.10;;;4.70;99.90;;;;;;5038025;28;20044;-80
2022/01/24 03:25:25;;;;;;;23.92;17.40;;;4.70;99.90;;;;;;5036885;28;20127;-81
2022/01/24 03:27:51;;;;;;;23.48;16.45;;;4.70;99.90;;;;;;5021835;28;20556;-81
2022/01/24 03:30:16;;;;;;;22.45;16.90;;;4.70;99.90;;;;;;5021358;28;20037;-81
2022/01/24 03:32:42;;;;;;;23.42;16.90;;;4.70;99.90;;;;;;5021538;28;20481;-81
2022/01/24 03:35:08;;;;;;;23.63;17.23;;;4.80;99.90;;;;;;5004894;28;20037;-81
2022/01/24 03:37:35;;;;;;;24.77;17.75;;;4.80;99.90;;;;;;5005343;28;20435;-81
2022/01/24 03:40:02;;;;;;;22.73;17.88;;;4.80;99.90;;;;;;5021288;28;20037;-81
2022/01/24 03:42:28;;;;;;;22.77;16.95;;;4.80;99.90;;;;;;5004957;28;20558;-81
2022/01/24 03:44:58;;;;;;;22.65;17.05;;;4.80;99.90;;;;;;5004956;28;20049;-81
2022/01/24 03:50:06;;;;;;;23.05;17.52;;;4.80;99.90;;;;;;5022731;28;20131;-81
2022/01/24 03:52:32;;;;;;;26.70;19.05;;;4.80;99.90;;;;;;5037538;28;20044;-81
2022/01/24 03:55:00;;;;;;;25.95;19.08;;;4.80;99.90;;;;;;5037497;28;20124;-81
2022/01/24 03:57:26;;;;;;;25.88;19.75;;;4.80;99.90;;;;;;5036510;28;20076;-81
2022/01/24 03:59:52;;;;;;;26.85;20.15;;;4.80;99.90;;;;;;5037192;28;20041;-81
2022/01/24 04:02:21;;;;;;;26.80;20.15;;;4.80;99.90;;;;;;5004708;28;20064;-81
2022/01/24 04:04:47;;;;;;;25.10;19.02;;;4.80;99.90;;;;;;5037459;28;20055;-81
2022/01/24 04:07:13;;;;;;;26.90;19.73;;;4.80;99.90;;;;;;5004542;28;20052;-81
2022/01/24 04:09:41;;;;;;;27.40;19.92;;;4.80;99.90;;;;;;5037578;28;20052;-81
2022/01/24 04:12:08;;;;;;;26.98;19.83;;;4.80;99.90;;;;;;5019566;28;20091;-81
2022/01/24 04:22:09;;;;;;;25.65;19.23;;;4.80;99.90;;;;;;5037273;28;20520;-81
2022/01/24 04:24:35;;;;;;;26.92;19.92;;;4.90;99.90;;;;;;5036954;28;20119;-81
2022/01/24 04:27:01;;;;;;;26.15;19.55;;;4.80;99.90;;;;;;5019314;28;20048;-81
2022/01/24 04:29:27;;;;;;;26.40;20.20;;;4.80;99.90;;;;;;5020490;28;20033;-81
2022/01/24 04:31:53;;;;;;;27.73;20.00;;;4.80;99.90;;;;;;5020097;28;20040;-81
2022/01/24 04:34:18;;;;;;;26.27;19.95;;;4.80;99.90;;;;;;5036915;28;20098;-81
2022/01/24 04:36:44;;;;;;;26.30;20.05;;;5.40;99.90;;;;;;5003747;28;20041;-81
2022/01/24 04:39:10;;;;;;;28.08;20.98;;;5.10;99.90;;;;;;5004189;28;20073;-81
2022/01/24 04:41:40;;;;;;;26.35;19.83;;;4.90;99.90;;;;;;5003098;28;20044;-81
2022/01/24 04:44:45;;;;;;;27.48;20.52;;;4.80;99.90;;;;;;4985206;28;20055;-81
2022/01/24 04:52:32;;;;;;;26.73;20.45;;;4.90;99.90;;;;;;5032895;28;20047;-81
2022/01/24 04:54:58;;;;;;;28.25;21.08;;;5.40;99.90;;;;;;5016893;28;20489;-81
2022/01/24 04:57:26;;;;;;;29.70;21.13;;;4.80;99.90;;;;;;4999203;28;20049;-81
2022/01/24 04:59:55;;;;;;;27.98;21.33;;;5.10;99.90;;;;;;5016705;28;20037;-81
2022/01/24 05:02:23;;;;;;;27.50;20.95;;;4.70;99.90;;;;;;5022093;28;20534;-80
2022/01/24 05:04:49;;;;;;;27.02;20.42;;;4.90;99.90;;;;;;5036810;28;20561;-80
2022/01/24 05:07:15;;;;;;;27.13;20.50;;;5.20;99.90;;;;;;5035955;28;20045;-80
2022/01/24 05:10:08;;;;;;;27.67;21.17;;;4.80;99.90;;;;;;5036189;28;20048;-80
2022/01/24 05:23:28;;;;;;;31.27;22.70;;;4.70;99.90;;;;;;5035678;28;20107;-80
2022/01/24 05:25:55;;;;;;;29.30;21.65;;;4.70;99.90;;;;;;5034300;28;20052;-80
2022/01/24 05:28:22;;;;;;;31.58;23.15;;;4.70;99.90;;;;;;5019776;28;20424;-80
2022/01/24 05:30:48;;;;;;;30.10;21.67;;;4.70;99.90;;;;;;5035127;28;20047;-80
2022/01/24 05:33:15;;;;;;;30.25;22.80;;;4.70;99.90;;;;;;5018867;28;20029;-80
2022/01/24 05:35:40;;;;;;;29.88;22.45;;;4.70;99.90;;;;;;5035613;28;20400;-80
2022/01/24 05:38:06;;;;;;;32.58;23.52;;;4.70;99.90;;;;;;5019641;28;20040;-80
2022/01/24 05:40:32;;;;;;;30.58;22.20;;;4.70;99.90;;;;;;5034848;28;20047;-81
2022/01/24 05:42:58;;;;;;;31.30;23.42;;;4.70;99.90;;;;;;5002963;28;20040;-81
2022/01/24 05:45:24;;;;;;;36.67;27.02;;;4.70;99.90;;;;;;5035212;28;20037;-81
2022/01/24 05:47:50;;;;;;;45.75;32.83;;;4.70;99.90;;;;;;5002678;28;20036;-81
2022/01/24 05:50:16;;;;;;;49.33;34.40;;;4.70;99.90;;;;;;5018945;28;20432;-81
2022/01/24 05:52:42;;;;;;;52.13;35.20;;;4.70;99.90;;;;;;5002467;28;20049;-81
2022/01/24 05:55:08;;;;;;;53.60;35.70;;;4.80;99.90;;;;;;5002633;28;20477;-81
2022/01/24 05:57:36;;;;;;;50.13;34.83;;;4.80;99.90;;;;;;5017718;28;20315;-81
2022/01/24 06:00:03;;;;;;;50.45;35.17;;;4.80;99.90;;;;;;5018666;28;20489;-81
2022/01/24 06:02:29;;;;;;;50.33;33.55;;;4.80;99.90;;;;;;5015116;28;20413;-81
2022/01/24 06:04:55;;;;;;;44.00;31.58;;;4.70;99.90;;;;;;4983042;28;20052;-81
2022/01/24 06:07:21;;;;;;;46.45;31.65;;;4.70;99.90;;;;;;4998940;28;20046;-81
2022/01/24 06:09:47;;;;;;;46.45;31.42;;;4.70;99.90;;;;;;4982992;28;20052;-81
2022/01/24 06:12:13;;;;;;;43.22;30.63;;;4.70;99.90;;;;;;5010751;28;20493;-81
2022/01/24 06:14:39;;;;;;;46.42;31.23;;;4.70;99.90;;;;;;5011742;28;20115;-81
2022/01/24 06:17:04;;;;;;;46.35;30.77;;;4.70;99.90;;;;;;4979272;28;20049;-81
2022/01/24 06:19:30;;;;;;;45.53;31.17;;;5.20;99.90;;;;;;4979459;28;20429;-81
2022/01/24 06:21:56;;;;;;;46.75;31.75;;;4.70;99.90;;;;;;5011826;28;20177;-81
2022/01/24 06:24:21;;;;;;;49.80;32.67;;;4.70;99.90;;;;;;4979440;28;20048;-81
2022/01/24 06:26:47;;;;;;;47.20;32.35;;;4.70;99.90;;;;;;4978484;28;20042;-81
2022/01/24 06:29:13;;;;;;;49.38;32.92;;;4.70;99.90;;;;;;4979650;28;20052;-81
2022/01/24 06:31:39;;;;;;;52.17;34.58;;;4.70;99.90;;;;;;4995393;28;20092;-81
2022/01/24 06:34:05;;;;;;;55.17;37.03;;;4.60;99.90;;;;;;4995481;28;20041;-81
2022/01/24 06:36:32;;;;;;;54.08;36.10;;;4.70;99.90;;;;;;4996763;28;20048;-81
2022/01/24 06:39:00;;;;;;;57.53;38.15;;;4.60;99.90;;;;;;4999676;28;20046;-81
2022/01/24 06:41:30;;;;;;;56.67;38.03;;;4.60;99.90;;;;;;5015182;28;20046;-81
2022/01/24 06:43:56;;;;;;;62.83;40.38;;;4.60;99.90;;;;;;5015968;28;20053;-81
2022/01/24 06:46:23;;;;;;;60.15;40.28;;;4.60;99.90;;;;;;4999341;28;20516;-81
2022/01/24 06:48:48;;;;;;;57.83;37.63;;;4.60;99.90;;;;;;5016033;28;20137;-81
2022/01/24 06:51:14;;;;;;;57.10;38.72;;;4.60;99.90;;;;;;4999220;28;20080;-81
2022/01/24 06:53:41;;;;;;;58.38;38.95;;;4.70;99.90;;;;;;5015832;28;20512;-81
2022/01/24 06:56:07;;;;;;;57.28;37.75;;;4.60;99.90;;;;;;4982500;28;20401;-81
2022/01/24 06:58:34;;;;;;;58.30;37.22;;;4.60;99.90;;;;;;4967048;28;20034;-81
2022/01/24 07:01:01;;;;;;;60.53;39.47;;;4.60;99.90;;;;;;5006065;28;20052;-81
2022/01/24 07:03:27;;;;;;;60.70;38.42;;;4.60;99.90;;;;;;5018454;28;20053;-81
2022/01/24 07:05:53;;;;;;;58.90;38.67;;;4.60;99.90;;;;;;5008050;28;20049;-81
2022/01/24 07:08:19;;;;;;;65.45;41.17;;;4.60;99.90;;;;;;5015291;28;20065;-81
2022/01/24 07:10:44;;;;;;;61.58;39.20;;;4.60;99.90;;;;;;4982165;28;20037;-81
2022/01/24 07:13:10;;;;;;;62.17;39.20;;;4.60;99.90;;;;;;4999323;28;20042;-81
2022/01/24 07:15:45;;;;;;;58.58;38.05;;;4.60;99.90;;;;;;4998897;28;20088;-81
2022/01/24 07:18:57;;;;;;;60.47;39.75;;;4.60;99.90;;;;;;5000399;28;20034;-81
2022/01/24 07:21:05;;;;;;;61.10;38.40;;;4.60;99.90;;;;;;5001525;28;20046;-81
2022/01/24 07:23:32;;;;;;;63.05;39.53;;;4.60;99.90;;;;;;4995993;28;20034;-81
2022/01/24 07:25:57;;;;;;;53.80;34.80;;;4.60;99.90;;;;;;5021537;28;20050;-81
2022/01/24 07:28:23;;;;;;;56.30;35.85;;;4.60;99.90;;;;;;4995031;28;20144;-81
2022/01/24 07:30:49;;;;;;;60.22;36.45;;;4.60;99.90;;;;;;5012142;28;20468;-81
2022/01/24 07:33:14;;;;;;;56.13;36.08;;;4.60;99.90;;;;;;5011781;28;20389;-81
2022/01/24 07:35:42;;;;;;;57.63;36.65;;;4.60;99.90;;;;;;5027715;28;20037;-81
2022/01/24 07:38:07;;;;;;;60.35;37.08;;;4.60;99.90;;;;;;5015097;28;20038;-80
2022/01/24 07:40:38;;;;;;;63.33;39.95;;;5.00;99.90;;;;;;5027429;28;20086;-80
2022/01/24 07:45:37;;;;;;;63.33;39.25;;;4.50;99.90;;;;;;5011567;28;20052;-81
2022/01/24 07:48:04;;;;;;;62.97;41.38;;;4.60;99.90;;;;;;5015112;28;20065;-81
2022/01/24 07:50:30;;;;;;;63.95;40.55;;;4.60;99.90;;;;;;5013637;28;20033;-81
2022/01/24 07:52:59;;;;;;;67.15;40.75;;;4.60;99.90;;;;;;4992640;28;20045;-81
2022/01/24 07:55:25;;;;;;;68.43;41.50;;;4.60;99.90;;;;;;4998466;28;20034;-81
2022/01/24 07:57:51;;;;;;;69.65;44.33;;;4.70;99.90;;;;;;5012024;28;20033;-81
2022/01/24 08:00:17;;;;;;;70.03;43.60;;;4.60;99.90;;;;;;5027019;28;20060;-81
2022/01/24 08:02:43;;;;;;;69.95;44.70;;;4.60;99.90;;;;;;5029929;28;20053;-81
2022/01/24 08:05:10;;;;;;;67.85;43.28;;;4.60;99.90;;;;;;5028953;28;20056;-81
2022/01/24 08:07:38;;;;;;;67.40;42.47;;;4.60;99.90;;;;;;5010895;28;20172;-80
2022/01/24 08:10:05;;;;;;;74.22;44.53;;;4.80;99.90;;;;;;5005715;28;20486;-81
2022/01/24 08:12:31;;;;;;;70.78;43.22;;;4.60;99.90;;;;;;4999348;28;20448;-81
2022/01/24 08:15:00;;;;;;;71.78;45.33;;;4.60;99.90;;;;;;4993715;28;20040;-81
2022/01/24 08:17:26;;;;;;;70.95;45.85;;;4.60;99.90;;;;;;5029004;28;20129;-81
2022/01/24 08:19:52;;;;;;;71.10;44.92;;;4.60;99.90;;;;;;5004322;28;20148;-81
2022/01/24 08:22:18;;;;;;;71.60;45.67;;;4.70;99.90;;;;;;5010554;28;20480;-81
2022/01/24 08:24:45;;;;;;;70.75;44.60;;;4.70;99.90;;;;;;4985467;28;20485;-81
2022/01/24 08:27:12;;;;;;;75.38;46.50;;;4.80;99.90;;;;;;4988144;28;20046;-81
2022/01/24 08:29:37;;;;;;;72.55;45.13;;;4.70;99.90;;;;;;5001193;28;20050;-81
2022/01/24 08:32:04;;;;;;;69.25;43.85;;;4.70;99.90;;;;;;5009751;28;20510;-81
2022/01/24 08:34:30;;;;;;;71.05;45.58;;;4.70;99.90;;;;;;5006571;28;20069;-81
2022/01/24 08:36:55;;;;;;;74.65;45.20;;;4.70;99.90;;;;;;5017926;28;20073;-81
2022/01/24 08:39:21;;;;;;;78.85;46.60;;;4.80;99.90;;;;;;5002236;28;20073;-81
2022/01/24 08:44:32;;;;;;;71.90;45.53;;;4.70;99.90;;;;;;5005446;28;20076;-81
2022/01/24 08:46:58;;;;;;;74.72;47.92;;;4.80;99.90;;;;;;5006535;28;20045;-81
2022/01/24 08:49:24;;;;;;;75.40;47.50;;;4.80;99.90;;;;;;5023530;28;20504;-81
2022/01/24 08:51:50;;;;;;;73.47;46.22;;;4.80;99.90;;;;;;5005743;28;20030;-81
2022/01/24 08:54:16;;;;;;;74.63;46.70;;;4.80;99.90;;;;;;5007822;28;20037;-81
2022/01/24 08:56:42;;;;;;;73.85;45.03;;;4.90;99.90;;;;;;4984372;28;20122;-81
2022/01/24 08:59:08;;;;;;;74.00;42.80;;;4.90;99.90;;;;;;5006317;28;20556;-81
2022/01/24 09:01:34;;;;;;;72.82;44.95;;;4.90;99.90;;;;;;4994115;28;20037;-81
2022/01/24 09:04:00;;;;;;;71.57;43.10;;;5.00;99.90;;;;;;5008990;28;20049;-81
2022/01/24 09:06:28;;;;;;;74.03;44.60;;;4.90;99.90;;;;;;5007938;28;20045;-81
2022/01/24 09:09:01;;;;;;;73.70;43.75;;;4.90;99.90;;;;;;5000283;28;20524;-80
2022/01/24 09:11:34;;;;;;;69.85;43.35;;;5.20;99.90;;;;;;5006580;28;20033;-81
2022/01/24 09:14:00;;;;;;;78.13;46.33;;;5.00;99.90;;;;;;5006131;28;20117;-81
2022/01/24 09:16:26;;;;;;;77.25;47.17;;;4.90;99.90;;;;;;5008845;28;20046;-81
2022/01/24 09:18:52;;;;;;;75.38;46.05;;;5.00;99.90;;;;;;5024538;28;20042;-81
2022/01/24 09:21:19;;;;;;;75.15;48.35;;;5.00;99.90;;;;;;5006507;28;20130;-82
2022/01/24 09:23:44;;;;;;;75.40;47.28;;;5.00;99.90;;;;;;5006841;28;20041;-81
2022/01/24 09:26:11;;;;;;;78.38;49.33;;;5.00;99.90;;;;;;5002192;28;20042;-81
2022/01/24 09:28:37;;;;;;;71.75;47.65;;;5.20;99.90;;;;;;5022868;28;20042;-81
2022/01/24 09:31:03;;;;;;;74.68;47.80;;;5.00;99.90;;;;;;5009784;28;20040;-82
2022/01/24 09:33:29;;;;;;;71.28;47.08;;;5.10;99.90;;;;;;5005947;28;20033;-81
2022/01/24 09:35:59;;;;;;;73.82;47.40;;;5.10;99.90;;;;;;5000808;28;20129;-81
2022/01/24 09:38:30;;;;;;;73.32;48.05;;;5.10;99.90;;;;;;5021953;28;20049;-81
2022/01/24 09:40:57;;;;;;;74.63;48.22;;;5.10;99.90;;;;;;5022370;28;20048;-82
2022/01/24 09:43:23;;;;;;;73.28;48.53;;;5.20;99.90;;;;;;5017846;28;20045;-81
2022/01/24 09:45:48;;;;;;;73.00;48.97;;;5.20;99.90;;;;;;4990701;28;20050;-81
2022/01/24 09:48:16;;;;;;;73.68;48.95;;;5.10;99.90;;;;;;5004195;28;20379;-82
2022/01/24 09:50:45;;;;;;;74.97;47.88;;;5.10;99.90;;;;;;5010815;28;20041;-81
2022/01/24 09:53:13;;;;;;;69.88;47.45;;;5.20;99.90;;;;;;5023175;28;20469;-81
2022/01/24 09:55:39;;;;;;;72.55;47.17;;;5.20;99.90;;;;;;4995331;28;20042;-81
2022/01/24 09:58:05;;;;;;;70.63;47.28;;;5.20;99.90;;;;;;5002559;28;20449;-81
2022/01/24 10:00:31;;;;;;;71.80;48.65;;;5.20;99.90;;;;;;5024550;28;20547;-81
2022/01/24 10:02:58;;;;;;;72.95;48.85;;;5.80;99.90;;;;;;5020672;28;20058;-81
2022/01/24 10:05:27;;;;;;;65.78;46.45;;;5.20;99.90;;;;;;5023690;28;20049;-81
2022/01/24 10:07:56;;;;;;;69.25;47.22;;;5.30;99.90;;;;;;5006692;28;20072;-81
2022/01/24 10:10:28;;;;;;;64.43;45.78;;;5.20;99.90;;;;;;5007704;28;20073;-81
2022/01/24 10:18:11;;;;;;;68.47;48.17;;;5.30;99.90;;;;;;5019811;28;20132;-81
2022/01/24 10:20:41;;;;;;;67.88;48.63;;;5.30;99.90;;;;;;5010063;28;20121;-81
2022/01/24 10:23:24;;;;;;;67.90;48.20;;;5.30;99.90;;;;;;4990763;28;20927;-81
2022/01/24 10:26:00;;;;;;;66.85;48.15;;;5.30;99.90;;;;;;5003572;28;20041;-81
2022/01/24 10:28:32;;;;;;;64.07;46.90;;;5.30;99.90;;;;;;5022552;28;20041;-81
2022/01/24 10:31:23;;;;;;;67.25;47.90;;;5.30;99.90;;;;;;5005605;28;20041;-81
2022/01/24 10:33:51;;;;;;;60.70;44.28;;;5.40;99.90;;;;;;5007231;28;20052;-81
2022/01/24 10:36:51;;;;;;;58.80;45.13;;;5.90;99.90;;;;;;5005278;28;20133;-81
2022/01/24 10:39:33;;;;;;;62.55;45.47;;;5.40;99.90;;;;;;5023033;28;20054;-81
2022/01/24 10:42:52;;;;;;;60.80;45.57;;;5.40;99.90;;;;;;5004028;28;20056;-81
2022/01/24 10:45:22;;;;;;;58.33;44.35;;;5.40;99.90;;;;;;5024480;28;20686;-81
2022/01/24 10:47:52;;;;;;;55.08;43.38;;;5.40;99.90;;;;;;5027303;28;20117;-81
2022/01/24 10:50:29;;;;;;;56.63;42.97;;;5.50;99.90;;;;;;5003435;28;20053;-81
2022/01/24 10:52:56;;;;;;;57.30;44.15;;;5.50;99.90;;;;;;5002700;28;20068;-81
2022/01/24 10:55:27;;;;;;;62.47;46.55;;;5.50;99.90;;;;;;5021131;28;20037;-81
2022/01/24 10:58:08;;;;;;;59.60;46.05;;;5.50;99.90;;;;;;5019250;28;20128;-81
2022/01/24 11:00:37;;;;;;;64.28;46.30;;;5.50;99.90;;;;;;5004784;28;20033;-81
2022/01/24 11:03:03;;;;;;;61.25;45.50;;;5.50;99.90;;;;;;5021729;28;20540;-81
2022/01/24 11:05:34;;;;;;;61.50;46.30;;;5.50;99.90;;;;;;5001454;28;20042;-81
2022/01/24 11:08:05;;;;;;;61.80;46.90;;;5.50;99.90;;;;;;5004180;28;20120;-81
2022/01/24 11:10:38;;;;;;;63.33;47.20;;;5.50;99.90;;;;;;5003525;28;20037;-81
2022/01/24 11:13:05;;;;;;;63.65;47.63;;;5.50;99.90;;;;;;5003960;28;20623;-81
2022/01/24 11:15:32;;;;;;;62.88;48.15;;;5.50;99.90;;;;;;5005187;28;20072;-81
2022/01/24 11:17:59;;;;;;;63.13;47.80;;;5.50;99.90;;;;;;5018639;28;20037;-81
2022/01/24 11:20:32;;;;;;;65.43;49.13;;;5.50;99.90;;;;;;5003360;28;20045;-81
2022/01/24 11:23:05;;;;;;;66.85;50.60;;;5.50;99.90;;;;;;5008489;28;20401;-81
2022/01/24 11:25:37;;;;;;;63.78;48.38;;;5.50;99.90;;;;;;5027029;28;20134;-81
2022/01/24 11:28:03;;;;;;;64.85;48.45;;;5.50;99.90;;;;;;5005566;28;20045;-81
2022/01/24 11:30:40;;;;;;;62.13;47.80;;;5.50;99.90;;;;;;5004562;28;20049;-81
2022/01/24 11:33:12;;;;;;;65.25;48.10;;;5.50;99.90;;;;;;5008083;28;20052;-81
2022/01/24 11:35:41;;;;;;;65.72;49.75;;;5.50;99.90;;;;;;5024544;28;20037;-81
2022/01/24 11:38:44;;;;;;;62.50;47.00;;;5.50;99.90;;;;;;5009593;28;20045;-81
2022/01/24 11:41:32;;;;;;;62.75;46.97;;;5.50;99.90;;;;;;5010199;28;20389;-81
2022/01/24 11:44:00;;;;;;;64.28;48.17;;;5.50;99.90;;;;;;5006791;28;20044;-81
2022/01/24 11:46:55;;;;;;;60.47;46.33;;;5.50;99.90;;;;;;5007617;28;20042;-81
2022/01/24 11:49:25;;;;;;;63.38;47.80;;;5.40;99.90;;;;;;5027903;28;20054;-81
2022/01/24 11:52:16;;;;;;;62.90;47.45;;;5.50;99.90;;;;;;5023192;28;20059;-81
2022/01/24 11:55:16;;;;;;;65.63;48.83;;;5.50;99.90;;;;;;5036780;28;20575;-81
2022/01/24 11:57:38;;;;;;;65.15;48.60;;;5.50;99.90;;;;;;5025028;28;20050;-81
2022/01/24 12:00:07;;;;;;;62.78;46.97;;;5.50;99.90;;;;;;5025467;28;20104;-81
2022/01/24 12:02:52;;;;;;;64.30;48.20;;;5.50;99.90;;;;;;5012775;28;20045;-81
2022/01/24 12:05:30;;;;;;;63.40;46.03;;;5.50;99.90;;;;;;5043666;28;20058;-81
2022/01/24 12:08:01;;;;;;;60.70;45.80;;;5.50;99.90;;;;;;5007452;28;20041;-81
2022/01/24 12:10:34;;;;;;;63.83;46.65;;;5.50;99.90;;;;;;5024384;28;20046;-81
2022/01/24 12:13:03;;;;;;;61.97;46.35;;;5.50;99.90;;;;;;5011021;28;20037;-81
2022/01/24 12:15:38;;;;;;;60.63;45.92;;;5.50;99.90;;;;;;5008054;28;20045;-82
2022/01/24 12:18:05;;;;;;;60.03;45.67;;;5.60;99.90;;;;;;5008350;28;20049;-81
2022/01/24 12:20:30;;;;;;;64.57;46.83;;;5.50;99.90;;;;;;5010753;28;20045;-81
2022/01/24 12:23:21;;;;;;;64.85;47.92;;;5.50;99.90;;;;;;5024701;28;20393;-82
2022/01/24 12:26:00;;;;;;;63.40;47.13;;;5.50;99.90;;;;;;4979436;28;20072;-81
2022/01/24 12:28:46;;;;;;;63.83;47.13;;;5.50;99.90;;;;;;5001841;28;20180;-82
2022/01/24 12:31:24;;;;;;;60.88;45.10;;;5.50;99.90;;;;;;5019892;28;20038;-82
2022/01/24 12:34:07;;;;;;;56.42;41.80;;;5.50;99.90;;;;;;5005563;28;20042;-81
2022/01/24 12:36:46;;;;;;;59.72;44.28;;;5.60;99.90;;;;;;5007899;28;20077;-81
2022/01/24 12:39:23;;;;;;;60.22;43.83;;;5.50;99.90;;;;;;5007019;28;20042;-82
2022/01/24 12:41:58;;;;;;;63.35;46.03;;;5.50;99.90;;;;;;5025337;28;20037;-81
2022/01/24 12:47:11;;;;;;;57.95;42.50;;;5.50;99.90;;;;;;5025648;28;20099;-81
2022/01/24 12:49:39;;;;;;;56.15;42.03;;;5.50;99.90;;;;;;5024119;28;20508;-81
2022/01/24 12:52:07;;;;;;;55.67;41.92;;;5.50;99.90;;;;;;5006128;28;20454;-81
2022/01/24 12:54:36;;;;;;;49.75;38.08;;;5.50;99.90;;;;;;5021369;28;20064;-81
2022/01/24 12:57:05;;;;;;;56.42;42.35;;;5.50;99.90;;;;;;5020889;28;20050;-81
2022/01/24 12:59:32;;;;;;;50.20;39.17;;;5.40;99.90;;;;;;5002673;28;20049;-81
2022/01/24 13:02:00;;;;;;;51.67;41.08;;;5.40;99.90;;;;;;4985559;28;20515;-80
2022/01/24 13:04:36;;;;;;;49.72;38.95;;;5.40;99.90;;;;;;4996670;28;20093;-80
2022/01/24 13:07:03;;;;;;;50.08;38.97;;;5.40;99.90;;;;;;5013133;28;20091;-81
2022/01/24 13:09:29;;;;;;;52.13;39.40;;;5.40;99.90;;;;;;4997330;28;20052;-81
2022/01/24 13:12:01;;;;;;;54.53;40.83;;;5.40;99.90;;;;;;5027972;28;20038;-82
2022/01/24 13:23:03;;;;;;;55.50;40.45;;;5.40;99.90;;;;;;5023851;28;20122;-81
2022/01/24 13:25:31;;;;;;;53.60;40.95;;;5.40;99.90;;;;;;5026499;28;20404;-81
2022/01/24 13:28:05;;;;;;;60.53;43.70;;;5.40;99.90;;;;;;5016254;28;20390;-81
2022/01/24 13:30:34;;;;;;;51.45;38.28;;;5.30;99.90;;;;;;5029232;28;20402;-82
2022/01/24 13:33:05;;;;;;;59.38;40.97;;;5.30;99.90;;;;;;5009276;28;20139;-81
2022/01/24 13:35:40;;;;;;;57.60;42.20;;;5.40;99.90;;;;;;5010955;28;20037;-81
2022/01/24 13:38:09;;;;;;;54.47;40.50;;;5.30;99.90;;;;;;5010307;28;20049;-82
2022/01/24 13:41:12;;;;;;;57.88;40.90;;;5.30;99.90;;;;;;5027312;28;20037;-82
2022/01/24 13:43:44;;;;;;;55.33;40.42;;;5.30;99.90;;;;;;4957900;28;20533;-81
2022/01/24 13:46:38;;;;;;;55.88;42.00;;;5.20;99.90;;;;;;5019673;28;20052;-81
2022/01/24 13:49:16;;;;;;;54.10;39.97;;;5.30;99.90;;;;;;5025182;28;20045;-81
2022/01/24 13:51:53;;;;;;;53.60;40.22;;;5.30;99.90;;;;;;4996882;28;20493;-81
2022/01/24 13:54:39;;;;;;;57.22;42.22;;;5.30;99.90;;;;;;4997238;28;20113;-81
2022/01/24 13:57:07;;;;;;;57.25;41.88;;;5.20;99.90;;;;;;5026908;28;20387;-81
2022/01/24 13:59:33;;;;;;;48.72;36.83;;;5.20;99.90;;;;;;5011897;28;20398;-81
2022/01/24 14:02:09;;;;;;;50.35;38.53;;;5.20;99.90;;;;;;5026366;28;20120;-81
2022/01/24 14:04:42;;;;;;;56.85;42.30;;;5.20;99.90;;;;;;5009104;28;20049;-81
2022/01/24 14:07:29;;;;;;;53.70;40.03;;;5.10;99.90;;;;;;5006133;28;20045;-81
2022/01/24 14:09:57;;;;;;;50.70;40.83;;;5.10;99.90;;;;;;5023931;28;20041;-82
2022/01/24 14:12:32;;;;;;;48.25;39.38;;;5.20;99.90;;;;;;5005351;28;20125;-82
2022/01/24 14:15:08;;;;;;;49.03;40.72;;;5.20;99.90;;;;;;5024346;28;20558;-82
2022/01/24 14:20:08;;;;;;;47.65;39.72;;;5.10;99.90;;;;;;5023199;28;20111;-81
2022/01/24 14:22:48;;;;;;;44.50;39.45;;;5.10;99.90;;;;;;5023752;28;20049;-81
2022/01/24 14:25:15;;;;;;;47.33;39.95;;;5.10;99.90;;;;;;5017617;28;20037;-81
2022/01/24 14:27:51;;;;;;;46.05;39.92;;;5.00;99.90;;;;;;5020291;28;20042;-81
2022/01/24 14:30:26;;;;;;;43.33;38.28;;;5.00;99.90;;;;;;5007619;28;20052;-81
2022/01/24 14:33:18;;;;;;;44.38;39.05;;;5.00;99.90;;;;;;5020021;28;20034;-81
2022/01/24 14:36:08;;;;;;;44.42;37.85;;;5.00;99.90;;;;;;5005553;28;20038;-81
2022/01/24 14:38:47;;;;;;;43.80;37.50;;;4.90;99.90;;;;;;5007164;28;20038;-82
2022/01/24 14:41:30;;;;;;;42.63;36.60;;;4.90;99.90;;;;;;5002191;28;20041;-82
2022/01/24 14:46:44;;;;;;;45.63;38.83;;;4.90;99.90;;;;;;5017293;28;20576;-81